datoshorarios_respira

Este recurso contiene el identificador de cada estación RESPIRA y todos sus datos dinámicos para cada hora. No contiene el resto de atributos estáticos.

RESPIRA FIWARE es un dispositivo abierto IoT diseñado para monitorizar temperatura ambiente, humedad relativa y concentraciones de NO2 y de partículas en exteriores. Este dispositivo transmite niveles y concentraciones a una plataforma FIWARE central. Esta plataforma central es en su origen nuestro ecosistema RESPIRA IoT medioambiental desplegado para la provincia de Badajoz. https://panstamp.github.io/respira_fiware/docs/es/INDEX.html

Puede DESCARGAR el recurso de AQUÍ en formato CSV: https://datosabiertos.dip-badajoz.es/datastore/dump/b97deedd-30a7-441f-a45c-c9b44a973d62

Puede DESCARGAR el recurso de AQUÍ en formato Excel-compatible: https://datosabiertos.dip-badajoz.es/datastore/dump/b97deedd-30a7-441f-a45c-c9b44a973d62?bom=true

Puede DESCARGAR el recurso de AQUÍ en formato XML: https://datosabiertos.dip-badajoz.es/datastore/dump/b97deedd-30a7-441f-a45c-c9b44a973d62?format=xml

Incrustar

Vista básica que en formato tabla muestra solo parte de los datos estructurados. Para su consulta COMPLETA debe descargarse el recurso

_id recvTime fiwareServicePath entityType entityId TimeInstant TimeInstant_md NO2 NO2_md PM10 PM10_md PM1.0 PM1.0_md PM2.5 PM2.5_md PM4.0 PM4.0_md humidity humidity_md temperature temperature_md typicalSize typicalSize_md
98199 2021-07-29T14:41:14 /envAirQualityRESPIRA3 RESPIRA RESPIRA:RESPIRA_A4CF127501F8 2021-07-29T14:41:14 None 26.34 None 5.78 None 5.47 None 5.78 None 5.78 None 38.11 None 32.8 None 0.6 None
98202 2021-07-29T15:07:42 /envAirQualityRESPIRA3 RESPIRA RESPIRA:RESPIRA_807D3AF39838 2021-07-29T15:07:42 None 0 None 6.74 None 6.38 None 6.74 None 6.74 None 38.06 None 36.79 None 0.56 None
98204 2021-07-29T15:08:48 /envAirQualityRESPIRA3 RESPIRA RESPIRA:RESPIRA_A4CF12755A8C 2021-07-29T15:08:48 None 20.75 None 2.47 None 2.33 None 2.47 None 2.47 None 54.6 None 20.68 None 0.47 None
98206 2021-07-29T15:10:39 /envAirQualityRESPIRA3 RESPIRA RESPIRA:RESPIRA_A4CF1275659C 2021-07-29T15:10:38 None 42.7 None 4.34 None 4.1 None 4.34 None 4.34 None 59.85 None 20.99 None 0.55 None
98208 2021-07-29T15:15:40 /envAirQualityRESPIRA3 RESPIRA RESPIRA:RESPIRA_807D3AF39910 2021-07-29T15:15:40 None 33.04 None 3.87 None 3.66 None 3.87 None 3.87 None 38.77 None 32.25 None 0.56 None
98209 2021-07-29T15:19:53 /envAirQualityRESPIRA3 RESPIRA RESPIRA:RESPIRA_A4CF1272B60C 2021-07-29T15:19:52 None 175.38 None 4.17 None 3.97 None 4 None 4.01 None 24.2 None 40.71 None 0.53 None
98211 2021-07-29T15:20:11 /envAirQualityRESPIRA3 RESPIRA RESPIRA:RESPIRA_240AC4A26E00 2021-07-29T15:20:11 None 199.24 None 5.34 None 5.05 None 5.34 None 5.34 None 41.36 None 34.72 None 0.52 None
98212 2021-07-29T15:21:04 /envAirQualityRESPIRA3 RESPIRA RESPIRA:RESPIRA_807D3AF3AB0C 2021-07-29T15:21:04 None 0 None 5.35 None 5.06 None 5.35 None 5.35 None 38.18 None 35.81 None 0.61 None
98213 2021-07-29T15:21:05 /envAirQualityRESPIRA3 RESPIRA RESPIRA:RESPIRA_A4CF12752890 2021-07-29T15:21:04 None 105.07 None 6.16 None 5.82 None 6.16 None 6.16 None 32.39 None 36.63 None 0.56 None
98215 2021-07-29T15:24:29 /envAirQualityRESPIRA3 RESPIRA RESPIRA:RESPIRA_246F28179F74 2021-07-29T15:24:29 None 12.88 None 2.7 None 2.55 None 2.7 None 2.7 None 50.98 None 23.67 None 0.55 None
98218 2021-07-29T15:34:54 /envAirQualityRESPIRA3 RESPIRA RESPIRA:RESPIRA_807D3AF398EC 2021-07-29T15:34:54 None 231.46 None 6.18 None 5.85 None 6.18 None 6.18 None 43.82 None 38.65 None 0.54 None
98220 2021-07-29T15:39:58 /envAirQualityRESPIRA3 RESPIRA RESPIRA:RESPIRA_807D3AF35A5C 2021-07-29T15:39:58 None 0 None 4.84 None 4.57 None 4.84 None 4.84 None 24.53 None 35.67 None 0.56 None
98210 2021-07-29T15:20:04 /envAirQualityRESPIRA3 RESPIRA RESPIRA:RESPIRA_240AC4A3EBF8 2021-07-29T15:20:03 None 483.23 None 4229.03 None 638.52 None 2480.33 None 3937.58 None 32.47 None 36.54 None 1.58 None
98214 2021-07-29T15:23:48 /envAirQualityRESPIRA3 RESPIRA RESPIRA:RESPIRA_A4CF12755848 2021-07-29T15:23:48 None 179.37 None 4.12 None 3.89 None 4.12 None 4.12 None 23.6 None 37.97 None 0.56 None
98216 2021-07-29T15:24:32 /envAirQualityRESPIRA3 RESPIRA RESPIRA:RESPIRA_A4CF12758438 2021-07-29T15:24:32 None 180.61 None 3.62 None 3.41 None 3.61 None 3.62 None 19.9 None 46.03 None 0.58 None
98217 2021-07-29T15:31:03 /envAirQualityRESPIRA3 RESPIRA RESPIRA:RESPIRA_A4CF12755D90 2021-07-29T15:31:03 None 9.43 None 6.83 None 6.46 None 6.83 None 6.83 None 35.16 None 35.9 None 0.52 None
98219 2021-07-29T15:39:11 /envAirQualityRESPIRA3 RESPIRA RESPIRA:RESPIRA_807D3AF39F6C 2021-07-29T15:39:10 None 211.56 None 5.82 None 5.49 None 5.81 None 5.82 None 43.73 None 35.63 None 0.55 None
98222 2021-07-29T15:54:54 /envAirQualityRESPIRA3 RESPIRA RESPIRA:RESPIRA_30AEA4F1D164 2021-07-29T15:54:54 None 5.95 None 1.07 None 1.01 None 1.07 None 1.07 None 53.74 None 19.07 None 0.57 None
98224 2021-07-29T16:07:43 /envAirQualityRESPIRA3 RESPIRA RESPIRA:RESPIRA_807D3AF39838 2021-07-29T16:07:43 None 0 None 6.16 None 5.82 None 6.16 None 6.16 None 35.09 None 38.19 None 0.54 None
98225 2021-07-29T16:08:11 /envAirQualityRESPIRA3 RESPIRA RESPIRA:RESPIRA_A4CF1272ACE4 2021-07-29T16:08:10 None 0 None 4.13 None 3.9 None 4.13 None 4.13 None 25.29 None 36.13 None 0.53 None
98227 2021-07-29T16:09:50 /envAirQualityRESPIRA3 RESPIRA RESPIRA:RESPIRA_A4CF12750498 2021-07-29T16:09:50 None 7.53 None 6.38 None 6.03 None 6.38 None 6.38 None 35.09 None 34.19 None 0.57 None
98231 2021-07-29T16:19:53 /envAirQualityRESPIRA3 RESPIRA RESPIRA:RESPIRA_A4CF1272B60C 2021-07-29T16:19:53 None 152.8 None 4.47 None 4.25 None 4.29 None 4.29 None 25.16 None 40.03 None 0.54 None
98232 2021-07-29T16:20:04 /envAirQualityRESPIRA3 RESPIRA RESPIRA:RESPIRA_240AC4A3EBF8 2021-07-29T16:20:04 None 601.76 None 7281.47 None 1103.92 None 4273.05 None 6780.07 None 31.8 None 37.69 None 1.56 None
98221 2021-07-29T15:41:15 /envAirQualityRESPIRA3 RESPIRA RESPIRA:RESPIRA_A4CF127501F8 2021-07-29T15:41:14 None 24.46 None 5.77 None 5.46 None 5.77 None 5.77 None 36.79 None 32.98 None 0.58 None
98223 2021-07-29T15:55:54 /envAirQualityRESPIRA3 RESPIRA RESPIRA:RESPIRA_30AEA4F1B87C 2021-07-29T15:55:54 None 70.33 None 5.76 None 5.45 None 5.76 None 5.76 None 35.44 None 36.56 None 0.51 None
98226 2021-07-29T16:08:48 /envAirQualityRESPIRA3 RESPIRA RESPIRA:RESPIRA_A4CF12755A8C 2021-07-29T16:08:48 None 22.63 None 2.34 None 2.22 None 2.34 None 2.34 None 54.33 None 20.6 None 0.48 None
98228 2021-07-29T16:11:13 /envAirQualityRESPIRA3 RESPIRA RESPIRA:RESPIRA_A4CF1275659C 2021-07-29T16:11:13 None 35.18 None 11.31 None 4.69 None 8.18 None 10.79 None 52.37 None 20.87 None 0.79 None
98229 2021-07-29T16:12:05 /envAirQualityRESPIRA3 RESPIRA RESPIRA:RESPIRA_A4CF1275559C 2021-07-29T16:12:05 None 50.51 None 6.23 None 5.89 None 6.23 None 6.23 None 34.35 None 37.33 None 0.58 None
98230 2021-07-29T16:15:41 /envAirQualityRESPIRA3 RESPIRA RESPIRA:RESPIRA_807D3AF39910 2021-07-29T16:15:41 None 36.8 None 3.7 None 3.5 None 3.7 None 3.7 None 38.34 None 32.41 None 0.58 None
98237 2021-07-29T16:24:30 /envAirQualityRESPIRA3 RESPIRA RESPIRA:RESPIRA_246F28179F74 2021-07-29T16:24:30 None 20.41 None 2.63 None 2.49 None 2.63 None 2.63 None 50.97 None 23.65 None 0.59 None
98238 2021-07-29T16:24:32 /envAirQualityRESPIRA3 RESPIRA RESPIRA:RESPIRA_A4CF12758438 2021-07-29T16:24:32 None 131.7 None 3.61 None 3.41 None 3.61 None 3.61 None 21.57 None 42.64 None 0.57 None
98242 2021-07-29T16:40:32 /envAirQualityRESPIRA3 RESPIRA RESPIRA:RESPIRA_807D3AF39F6C 2021-07-29T16:40:31 None 217.2 None 8.42 None 4.75 None 6.74 None 8.14 None 39.01 None 36.53 None 0.7 None
98244 2021-07-29T16:54:56 /envAirQualityRESPIRA3 RESPIRA RESPIRA:RESPIRA_30AEA4F1D164 2021-07-29T16:54:55 None 9.71 None 1.02 None 0.97 None 1.02 None 1.02 None 53.66 None 19.12 None 0.56 None
98247 2021-07-29T17:08:11 /envAirQualityRESPIRA3 RESPIRA RESPIRA:RESPIRA_A4CF1272ACE4 2021-07-29T17:08:11 None 0 None 5.52 None 5.22 None 5.52 None 5.52 None 31.66 None 34.87 None 0.53 None
98233 2021-07-29T16:20:12 /envAirQualityRESPIRA3 RESPIRA RESPIRA:RESPIRA_240AC4A26E00 2021-07-29T16:20:12 None 242.52 None 4.89 None 4.62 None 4.89 None 4.89 None 37.53 None 37.22 None 0.52 None
98234 2021-07-29T16:21:05 /envAirQualityRESPIRA3 RESPIRA RESPIRA:RESPIRA_807D3AF3AB0C 2021-07-29T16:21:04 None 0 None 5.26 None 4.97 None 5.26 None 5.26 None 36.88 None 35.71 None 0.6 None
98235 2021-07-29T16:21:05 /envAirQualityRESPIRA3 RESPIRA RESPIRA:RESPIRA_A4CF12752890 2021-07-29T16:21:05 None 108.84 None 6 None 5.67 None 6 None 6 None 32.15 None 36.29 None 0.54 None
98236 2021-07-29T16:23:48 /envAirQualityRESPIRA3 RESPIRA RESPIRA:RESPIRA_A4CF12755848 2021-07-29T16:23:48 None 3025.93 None 4.06 None 3.83 None 4.05 None 4.06 None 23.19 None 37.62 None 0.58 None
98239 2021-07-29T16:31:03 /envAirQualityRESPIRA3 RESPIRA RESPIRA:RESPIRA_A4CF12755D90 2021-07-29T16:31:03 None 9.43 None 8.26 None 7.81 None 8.26 None 8.26 None 36.45 None 35.08 None 0.55 None
98240 2021-07-29T16:34:55 /envAirQualityRESPIRA3 RESPIRA RESPIRA:RESPIRA_807D3AF398EC 2021-07-29T16:34:54 None 222.06 None 6.01 None 5.69 None 6.01 None 6.01 None 41.01 None 39.29 None 0.52 None
98241 2021-07-29T16:39:59 /envAirQualityRESPIRA3 RESPIRA RESPIRA:RESPIRA_807D3AF35A5C 2021-07-29T16:39:58 None 0 None 5.11 None 4.83 None 5.11 None 5.11 None 25.73 None 35.34 None 0.54 None
98243 2021-07-29T16:41:17 /envAirQualityRESPIRA3 RESPIRA RESPIRA:RESPIRA_A4CF127501F8 2021-07-29T16:41:17 None 24.46 None 6.4 None 6.05 None 6.4 None 6.4 None 33.97 None 33 None 0.6 None
98245 2021-07-29T16:55:54 /envAirQualityRESPIRA3 RESPIRA RESPIRA:RESPIRA_30AEA4F1B87C 2021-07-29T16:55:54 None 68.45 None 6.19 None 5.85 None 6.19 None 6.19 None 38.16 None 35.76 None 0.52 None
98246 2021-07-29T17:07:43 /envAirQualityRESPIRA3 RESPIRA RESPIRA:RESPIRA_807D3AF39838 2021-07-29T17:07:43 None 0 None 5.62 None 5.32 None 5.62 None 5.62 None 33.17 None 37.72 None 0.55 None
98248 2021-07-29T17:08:48 /envAirQualityRESPIRA3 RESPIRA RESPIRA:RESPIRA_A4CF12755A8C 2021-07-29T17:08:48 None 22.63 None 2.44 None 2.3 None 2.44 None 2.44 None 54.63 None 20.71 None 0.51 None
98251 2021-07-29T17:12:05 /envAirQualityRESPIRA3 RESPIRA RESPIRA:RESPIRA_A4CF1275559C 2021-07-29T17:12:05 None 48.63 None 6.37 None 6.02 None 6.37 None 6.37 None 37.32 None 36.48 None 0.59 None
98249 2021-07-29T17:09:50 /envAirQualityRESPIRA3 RESPIRA RESPIRA:RESPIRA_A4CF12750498 2021-07-29T17:09:50 None 5.64 None 6.59 None 6.23 None 6.59 None 6.59 None 34.24 None 33.64 None 0.61 None
98250 2021-07-29T17:11:14 /envAirQualityRESPIRA3 RESPIRA RESPIRA:RESPIRA_A4CF1275659C 2021-07-29T17:11:14 None 42.7 None 4.37 None 4.13 None 4.37 None 4.37 None 55.96 None 20.76 None 0.52 None
98253 2021-07-29T17:19:53 /envAirQualityRESPIRA3 RESPIRA RESPIRA:RESPIRA_A4CF1272B60C 2021-07-29T17:19:53 None 162.21 None 5.15 None 4.89 None 4.94 None 4.95 None 28.14 None 38.48 None 0.57 None
98254 2021-07-29T17:20:05 /envAirQualityRESPIRA3 RESPIRA RESPIRA:RESPIRA_240AC4A3EBF8 2021-07-29T17:20:04 None 564.13 None 5417.93 None 849.12 None 3190.97 None 5046.77 None 34.73 None 36.69 None 1.51 None
98257 2021-07-29T17:21:05 /envAirQualityRESPIRA3 RESPIRA RESPIRA:RESPIRA_A4CF12752890 2021-07-29T17:21:05 None 110.72 None 5.67 None 5.34 None 5.66 None 5.66 None 31.28 None 35.94 None 0.56 None
98259 2021-07-29T17:24:30 /envAirQualityRESPIRA3 RESPIRA RESPIRA:RESPIRA_246F28179F74 2021-07-29T17:24:30 None 16.65 None 2.59 None 2.45 None 2.59 None 2.59 None 51.04 None 23.62 None 0.53 None
98260 2021-07-29T17:24:33 /envAirQualityRESPIRA3 RESPIRA RESPIRA:RESPIRA_A4CF12758438 2021-07-29T17:24:32 None 28.22 None 4.45 None 4.18 None 4.44 None 4.45 None 27.15 None 37.14 None 0.63 None
98261 2021-07-29T17:31:04 /envAirQualityRESPIRA3 RESPIRA RESPIRA:RESPIRA_A4CF12755D90 2021-07-29T17:31:03 None 9.43 None 17.56 None 11.49 None 14.9 None 17.12 None 35.11 None 34.64 None 0.67 None
98262 2021-07-29T17:34:55 /envAirQualityRESPIRA3 RESPIRA RESPIRA:RESPIRA_807D3AF398EC 2021-07-29T17:34:55 None 231.46 None 5.6 None 5.3 None 5.6 None 5.6 None 37.62 None 39.62 None 0.56 None
98263 2021-07-29T17:39:59 /envAirQualityRESPIRA3 RESPIRA RESPIRA:RESPIRA_807D3AF35A5C 2021-07-29T17:39:59 None 0 None 5.07 None 4.77 None 5.06 None 5.07 None 28.09 None 34.11 None 0.57 None
98268 2021-07-29T18:07:44 /envAirQualityRESPIRA3 RESPIRA RESPIRA:RESPIRA_807D3AF39838 2021-07-29T18:07:43 None 0 None 5.56 None 5.26 None 5.56 None 5.56 None 31.49 None 37.18 None 0.55 None
98252 2021-07-29T17:15:41 /envAirQualityRESPIRA3 RESPIRA RESPIRA:RESPIRA_807D3AF39910 2021-07-29T17:15:41 None 31.16 None 3.63 None 3.43 None 3.63 None 3.63 None 37.91 None 32.5 None 0.55 None
98255 2021-07-29T17:20:12 /envAirQualityRESPIRA3 RESPIRA RESPIRA:RESPIRA_240AC4A26E00 2021-07-29T17:20:12 None 155.97 None 5.62 None 5.32 None 5.62 None 5.62 None 41.33 None 34.78 None 0.53 None
98256 2021-07-29T17:21:05 /envAirQualityRESPIRA3 RESPIRA RESPIRA:RESPIRA_807D3AF3AB0C 2021-07-29T17:21:05 None 0 None 5.73 None 5.42 None 5.73 None 5.73 None 35.79 None 35.34 None 0.63 None
98258 2021-07-29T17:23:49 /envAirQualityRESPIRA3 RESPIRA RESPIRA:RESPIRA_A4CF12755848 2021-07-29T17:23:48 None 280.96 None 4.82 None 4.56 None 4.82 None 4.82 None 24.99 None 36.75 None 0.56 None
98264 2021-07-29T17:40:33 /envAirQualityRESPIRA3 RESPIRA RESPIRA:RESPIRA_807D3AF39F6C 2021-07-29T17:40:32 None 194.62 None 5.58 None 5.25 None 5.57 None 5.58 None 38.92 None 36.09 None 0.57 None
98265 2021-07-29T17:41:17 /envAirQualityRESPIRA3 RESPIRA RESPIRA:RESPIRA_A4CF127501F8 2021-07-29T17:41:17 None 24.46 None 5.92 None 5.6 None 5.92 None 5.92 None 32.85 None 32.87 None 0.6 None
98266 2021-07-29T17:54:56 /envAirQualityRESPIRA3 RESPIRA RESPIRA:RESPIRA_30AEA4F1D164 2021-07-29T17:54:56 None 9.71 None 0.99 None 0.94 None 0.99 None 0.99 None 53.31 None 19.14 None 0.57 None
98267 2021-07-29T17:55:55 /envAirQualityRESPIRA3 RESPIRA RESPIRA:RESPIRA_30AEA4F1B87C 2021-07-29T17:55:54 None 66.57 None 6.69 None 6.33 None 6.69 None 6.69 None 40.56 None 34.44 None 0.52 None
98270 2021-07-29T18:08:49 /envAirQualityRESPIRA3 RESPIRA RESPIRA:RESPIRA_A4CF12755A8C 2021-07-29T18:08:49 None 20.75 None 2.37 None 2.25 None 2.37 None 2.37 None 55.63 None 20.69 None 0.49 None
98272 2021-07-29T18:11:14 /envAirQualityRESPIRA3 RESPIRA RESPIRA:RESPIRA_A4CF1275659C 2021-07-29T18:11:14 None 40.82 None 4.44 None 4.2 None 4.44 None 4.44 None 56.28 None 20.73 None 0.57 None
98273 2021-07-29T18:12:05 /envAirQualityRESPIRA3 RESPIRA RESPIRA:RESPIRA_A4CF1275559C 2021-07-29T18:12:05 None 48.63 None 6.26 None 5.92 None 6.26 None 6.26 None 39.19 None 34.99 None 0.61 None
98269 2021-07-29T18:08:11 /envAirQualityRESPIRA3 RESPIRA RESPIRA:RESPIRA_A4CF1272ACE4 2021-07-29T18:08:11 None 0 None 5.9 None 5.58 None 5.9 None 5.9 None 34.91 None 33.58 None 0.56 None
98271 2021-07-29T18:09:51 /envAirQualityRESPIRA3 RESPIRA RESPIRA:RESPIRA_A4CF12750498 2021-07-29T18:09:50 None 7.53 None 6.82 None 6.45 None 6.82 None 6.82 None 33.6 None 32.85 None 0.57 None
98277 2021-07-29T18:20:13 /envAirQualityRESPIRA3 RESPIRA RESPIRA:RESPIRA_240AC4A26E00 2021-07-29T18:20:13 None 28.04 None 5.89 None 5.57 None 5.89 None 5.89 None 44.07 None 31.93 None 0.56 None
98279 2021-07-29T18:21:05 /envAirQualityRESPIRA3 RESPIRA RESPIRA:RESPIRA_807D3AF3AB0C 2021-07-29T18:21:05 None 0 None 6.38 None 6.03 None 6.38 None 6.38 None 36.91 None 34.01 None 0.6 None
98280 2021-07-29T18:23:49 /envAirQualityRESPIRA3 RESPIRA RESPIRA:RESPIRA_A4CF12755848 2021-07-29T18:23:49 None 0 None 5.7 None 5.36 None 5.68 None 5.69 None 32.55 None 35 None 0.56 None
98282 2021-07-29T18:24:33 /envAirQualityRESPIRA3 RESPIRA RESPIRA:RESPIRA_A4CF12758438 2021-07-29T18:24:33 None 26.34 None 5.11 None 4.82 None 5.1 None 5.11 None 35.32 None 34.93 None 0.6 None
98283 2021-07-29T18:31:04 /envAirQualityRESPIRA3 RESPIRA RESPIRA:RESPIRA_A4CF12755D90 2021-07-29T18:31:04 None 9.43 None 7.29 None 6.1 None 6.87 None 7.22 None 33.74 None 33.97 None 0.61 None
98285 2021-07-29T18:40:00 /envAirQualityRESPIRA3 RESPIRA RESPIRA:RESPIRA_807D3AF35A5C 2021-07-29T18:39:59 None 0 None 5.02 None 4.73 None 5.01 None 5.02 None 30.58 None 32.46 None 0.59 None
98287 2021-07-29T18:41:18 /envAirQualityRESPIRA3 RESPIRA RESPIRA:RESPIRA_A4CF127501F8 2021-07-29T18:41:18 None 22.58 None 6.51 None 6.16 None 6.51 None 6.51 None 34.21 None 32.12 None 0.56 None
98290 2021-07-29T19:07:44 /envAirQualityRESPIRA3 RESPIRA RESPIRA:RESPIRA_807D3AF39838 2021-07-29T19:07:44 None 0 None 5.08 None 4.8 None 5.07 None 5.08 None 31.72 None 35 None 0.59 None
98291 2021-07-29T19:08:12 /envAirQualityRESPIRA3 RESPIRA RESPIRA:RESPIRA_A4CF1272ACE4 2021-07-29T19:08:11 None 0 None 5.43 None 5.14 None 5.43 None 5.43 None 34.87 None 32.48 None 0.57 None
98274 2021-07-29T18:15:42 /envAirQualityRESPIRA3 RESPIRA RESPIRA:RESPIRA_807D3AF39910 2021-07-29T18:15:41 None 27.39 None 3.63 None 3.44 None 3.63 None 3.63 None 37.45 None 32.56 None 0.57 None
98275 2021-07-29T18:19:54 /envAirQualityRESPIRA3 RESPIRA RESPIRA:RESPIRA_A4CF1272B60C 2021-07-29T18:19:53 None 158.45 None 8.38 None 7.96 None 8.04 None 8.06 None 34.03 None 35.94 None 0.52 None
98276 2021-07-29T18:20:05 /envAirQualityRESPIRA3 RESPIRA RESPIRA:RESPIRA_240AC4A3EBF8 2021-07-29T18:20:05 None 439.96 None 4614.81 None 717.81 None 2717.72 None 4298.63 None 35.11 None 35.6 None 1.6 None
98278 2021-07-29T18:21:06 /envAirQualityRESPIRA3 RESPIRA RESPIRA:RESPIRA_A4CF12752890 2021-07-29T18:21:05 None 106.95 None 5.36 None 5.05 None 5.35 None 5.36 None 30.34 None 35.22 None 0.51 None
98281 2021-07-29T18:24:30 /envAirQualityRESPIRA3 RESPIRA RESPIRA:RESPIRA_246F28179F74 2021-07-29T18:24:30 None 20.41 None 2.84 None 2.68 None 2.84 None 2.84 None 51.29 None 23.63 None 0.56 None
98284 2021-07-29T18:34:55 /envAirQualityRESPIRA3 RESPIRA RESPIRA:RESPIRA_807D3AF398EC 2021-07-29T18:34:55 None 176.9 None 5.04 None 4.77 None 5.04 None 5.04 None 36.33 None 38.5 None 0.59 None
98286 2021-07-29T18:40:33 /envAirQualityRESPIRA3 RESPIRA RESPIRA:RESPIRA_807D3AF39F6C 2021-07-29T18:40:33 None 185.22 None 5.9 None 5.58 None 5.9 None 5.9 None 37.86 None 35.72 None 0.59 None
98288 2021-07-29T18:54:57 /envAirQualityRESPIRA3 RESPIRA RESPIRA:RESPIRA_30AEA4F1D164 2021-07-29T18:54:56 None 5.95 None 1.02 None 0.96 None 1.02 None 1.02 None 52.53 None 19.08 None 0.59 None
98289 2021-07-29T18:55:55 /envAirQualityRESPIRA3 RESPIRA RESPIRA:RESPIRA_30AEA4F1B87C 2021-07-29T18:55:55 None 66.57 None 6.38 None 6.03 None 6.38 None 6.38 None 39.7 None 33.19 None 0.53 None
98293 2021-07-29T19:09:51 /envAirQualityRESPIRA3 RESPIRA RESPIRA:RESPIRA_A4CF12750498 2021-07-29T19:09:51 None 7.53 None 6.86 None 6.49 None 6.86 None 6.86 None 34.99 None 31.97 None 0.59 None
98294 2021-07-29T19:11:14 /envAirQualityRESPIRA3 RESPIRA RESPIRA:RESPIRA_A4CF1275659C 2021-07-29T19:11:14 None 38.94 None 4.81 None 4.55 None 4.81 None 4.81 None 56.52 None 20.77 None 0.56 None
98292 2021-07-29T19:08:49 /envAirQualityRESPIRA3 RESPIRA RESPIRA:RESPIRA_A4CF12755A8C 2021-07-29T19:08:49 None 20.75 None 2.11 None 1.99 None 2.11 None 2.11 None 55.31 None 20.71 None 0.48 None
98297 2021-07-29T19:19:54 /envAirQualityRESPIRA3 RESPIRA RESPIRA:RESPIRA_A4CF1272B60C 2021-07-29T19:19:54 None 149.04 None 5.82 None 5.53 None 5.59 None 5.6 None 38.17 None 34.04 None 0.52 None
98299 2021-07-29T19:20:13 /envAirQualityRESPIRA3 RESPIRA RESPIRA:RESPIRA_240AC4A26E00 2021-07-29T19:20:13 None 0 None 5.34 None 5.06 None 5.35 None 5.35 None 44.24 None 30.36 None 0.57 None
98300 2021-07-29T19:21:06 /envAirQualityRESPIRA3 RESPIRA RESPIRA:RESPIRA_807D3AF3AB0C 2021-07-29T19:21:06 None 0 None 7.08 None 6.69 None 7.08 None 7.08 None 39.55 None 32.37 None 0.64 None
98301 2021-07-29T19:21:06 /envAirQualityRESPIRA3 RESPIRA RESPIRA:RESPIRA_A4CF12752890 2021-07-29T19:21:06 None 103.19 None 5.51 None 5.21 None 5.51 None 5.51 None 30.23 None 34.35 None 0.6 None
98302 2021-07-29T19:23:49 /envAirQualityRESPIRA3 RESPIRA RESPIRA:RESPIRA_A4CF12755848 2021-07-29T19:23:49 None 36.38 None 6.01 None 5.66 None 6 None 6.01 None 35.67 None 33.57 None 0.6 None
98303 2021-07-29T19:24:31 /envAirQualityRESPIRA3 RESPIRA RESPIRA:RESPIRA_246F28179F74 2021-07-29T19:24:30 None 18.53 None 3.12 None 2.95 None 3.12 None 3.12 None 51.75 None 23.62 None 0.53 None
98305 2021-07-29T19:31:05 /envAirQualityRESPIRA3 RESPIRA RESPIRA:RESPIRA_A4CF12755D90 2021-07-29T19:31:04 None 9.43 None 5.89 None 5.56 None 5.89 None 5.89 None 32.47 None 33.13 None 0.61 None
98306 2021-07-29T19:34:56 /envAirQualityRESPIRA3 RESPIRA RESPIRA:RESPIRA_807D3AF398EC 2021-07-29T19:34:56 None 86.6 None 5 None 4.72 None 4.99 None 5 None 38.67 None 34.57 None 0.55 None
98309 2021-07-29T19:41:18 /envAirQualityRESPIRA3 RESPIRA RESPIRA:RESPIRA_A4CF127501F8 2021-07-29T19:41:18 None 15.05 None 5.8 None 5.49 None 5.8 None 5.8 None 36.8 None 30.68 None 0.59 None

Información adicional

Campo Valor
Formato CSV
Licencia Creative Commons Attribution
formatCSV
package id12391b15-471b-47e2-85fc-4ae3187173a7
revision idce93c750-3e20-4f4a-8ae0-66e391a217ba
stateactive